sensor_id;sensor_type;location;lat;lon;timestamp;P1;durP1;ratioP1;P2;durP2;ratioP2
80400;SDS011;69727;53.132;8.230;2024-03-23T00:52:46;15.43;;;2.92;;
80400;SDS011;69727;53.132;8.230;2024-03-23T00:55:12;10.07;;;2.53;;
80400;SDS011;69727;53.132;8.230;2024-03-23T00:57:38;18.60;;;2.80;;
80400;SDS011;69727;53.132;8.230;2024-03-23T01:00:04;17.20;;;2.50;;
80400;SDS011;69727;53.132;8.230;2024-03-23T01:02:31;12.48;;;3.45;;
80400;SDS011;69727;53.132;8.230;2024-03-23T01:04:57;14.43;;;3.15;;
80400;SDS011;69727;53.132;8.230;2024-03-23T01:07:23;17.90;;;3.50;;
80400;SDS011;69727;53.132;8.230;2024-03-23T01:09:48;12.32;;;2.67;;
80400;SDS011;69727;53.132;8.230;2024-03-23T01:12:14;14.20;;;2.63;;
80400;SDS011;69727;53.132;8.230;2024-03-23T01:14:39;14.80;;;3.63;;
80400;SDS011;69727;53.132;8.230;2024-03-23T01:17:05;17.60;;;3.57;;
80400;SDS011;69727;53.132;8.230;2024-03-23T01:19:30;17.37;;;3.83;;
80400;SDS011;69727;53.132;8.230;2024-03-23T01:21:55;15.10;;;3.30;;
80400;SDS011;69727;53.132;8.230;2024-03-23T01:24:21;18.42;;;4.50;;
80400;SDS011;69727;53.132;8.230;2024-03-23T01:26:46;20.27;;;3.33;;
80400;SDS011;69727;53.132;8.230;2024-03-23T01:29:12;11.73;;;3.08;;
80400;SDS011;69727;53.132;8.230;2024-03-23T01:31:37;22.23;;;3.13;;
80400;SDS011;69727;53.132;8.230;2024-03-23T01:34:02;18.07;;;3.03;;
80400;SDS011;69727;53.132;8.230;2024-03-23T01:36:28;17.13;;;3.83;;
80400;SDS011;69727;53.132;8.230;2024-03-23T01:38:53;14.95;;;3.40;;
80400;SDS011;69727;53.132;8.230;2024-03-23T01:41:19;17.80;;;3.63;;
80400;SDS011;69727;53.132;8.230;2024-03-23T01:43:45;13.73;;;3.33;;
80400;SDS011;69727;53.132;8.230;2024-03-23T01:46:10;15.25;;;3.25;;
80400;SDS011;69727;53.132;8.230;2024-03-23T01:48:36;18.77;;;3.08;;
80400;SDS011;69727;53.132;8.230;2024-03-23T01:51:02;22.52;;;3.72;;
80400;SDS011;69727;53.132;8.230;2024-03-23T01:53:28;13.63;;;3.60;;
80400;SDS011;69727;53.132;8.230;2024-03-23T01:55:54;16.08;;;3.88;;
80400;SDS011;69727;53.132;8.230;2024-03-23T01:58:22;16.00;;;3.38;;
80400;SDS011;69727;53.132;8.230;2024-03-23T02:00:47;19.95;;;3.40;;
80400;SDS011;69727;53.132;8.230;2024-03-23T02:03:25;15.10;;;3.70;;
80400;SDS011;69727;53.132;8.230;2024-03-23T02:05:52;19.85;;;4.10;;
80400;SDS011;69727;53.132;8.230;2024-03-23T02:08:18;15.82;;;2.88;;
80400;SDS011;69727;53.132;8.230;2024-03-23T02:10:46;17.98;;;3.88;;
80400;SDS011;69727;53.132;8.230;2024-03-23T02:13:13;16.42;;;4.00;;
80400;SDS011;69727;53.132;8.230;2024-03-23T02:15:39;15.65;;;3.20;;
80400;SDS011;69727;53.132;8.230;2024-03-23T02:18:05;14.38;;;3.10;;
80400;SDS011;69727;53.132;8.230;2024-03-23T02:20:32;16.38;;;3.53;;
80400;SDS011;69727;53.132;8.230;2024-03-23T02:22:57;16.85;;;3.45;;
80400;SDS011;69727;53.132;8.230;2024-03-23T02:25:22;17.00;;;3.67;;
80400;SDS011;69727;53.132;8.230;2024-03-23T02:27:48;13.70;;;3.13;;
80400;SDS011;69727;53.132;8.230;2024-03-23T02:30:14;22.17;;;4.15;;
80400;SDS011;69727;53.132;8.230;2024-03-23T02:32:40;18.65;;;3.45;;
80400;SDS011;69727;53.132;8.230;2024-03-23T02:35:05;14.65;;;3.33;;
80400;SDS011;69727;53.132;8.230;2024-03-23T02:37:31;13.48;;;4.30;;
80400;SDS011;69727;53.132;8.230;2024-03-23T02:39:57;17.13;;;4.32;;
80400;SDS011;69727;53.132;8.230;2024-03-23T02:42:23;16.63;;;3.85;;
80400;SDS011;69727;53.132;8.230;2024-03-23T02:44:48;18.55;;;3.58;;
80400;SDS011;69727;53.132;8.230;2024-03-23T02:47:14;14.20;;;3.35;;
80400;SDS011;69727;53.132;8.230;2024-03-23T02:49:39;15.57;;;2.97;;
80400;SDS011;69727;53.132;8.230;2024-03-23T02:52:05;26.87;;;4.40;;
80400;SDS011;69727;53.132;8.230;2024-03-23T02:54:30;19.10;;;3.53;;
80400;SDS011;69727;53.132;8.230;2024-03-23T02:56:56;13.90;;;4.05;;
80400;SDS011;69727;53.132;8.230;2024-03-23T02:59:21;20.92;;;4.45;;
80400;SDS011;69727;53.132;8.230;2024-03-23T03:01:47;27.27;;;3.42;;
80400;SDS011;69727;53.132;8.230;2024-03-23T03:04:12;12.38;;;3.13;;
80400;SDS011;69727;53.132;8.230;2024-03-23T03:06:37;9.80;;;3.43;;
80400;SDS011;69727;53.132;8.230;2024-03-23T03:09:03;16.65;;;3.58;;
80400;SDS011;69727;53.132;8.230;2024-03-23T03:11:29;17.17;;;3.67;;
80400;SDS011;69727;53.132;8.230;2024-03-23T03:13:55;20.02;;;4.18;;
80400;SDS011;69727;53.132;8.230;2024-03-23T03:16:20;15.35;;;3.53;;
80400;SDS011;69727;53.132;8.230;2024-03-23T03:18:45;14.57;;;3.47;;
80400;SDS011;69727;53.132;8.230;2024-03-23T03:21:11;15.52;;;3.97;;
80400;SDS011;69727;53.132;8.230;2024-03-23T03:23:37;11.18;;;2.92;;
80400;SDS011;69727;53.132;8.230;2024-03-23T03:26:03;19.75;;;3.83;;
80400;SDS011;69727;53.132;8.230;2024-03-23T03:28:30;14.82;;;3.58;;
80400;SDS011;69727;53.132;8.230;2024-03-23T03:30:57;13.38;;;3.63;;
80400;SDS011;69727;53.132;8.230;2024-03-23T03:33:22;16.55;;;4.15;;
80400;SDS011;69727;53.132;8.230;2024-03-23T03:35:48;16.55;;;3.78;;
80400;SDS011;69727;53.132;8.230;2024-03-23T03:38:14;16.73;;;3.55;;
80400;SDS011;69727;53.132;8.230;2024-03-23T03:40:39;16.88;;;3.30;;
80400;SDS011;69727;53.132;8.230;2024-03-23T03:43:06;18.80;;;2.95;;
80400;SDS011;69727;53.132;8.230;2024-03-23T03:45:32;15.53;;;3.87;;
80400;SDS011;69727;53.132;8.230;2024-03-23T03:47:57;14.18;;;3.13;;
80400;SDS011;69727;53.132;8.230;2024-03-23T03:50:24;18.52;;;4.20;;
80400;SDS011;69727;53.132;8.230;2024-03-23T03:52:50;21.65;;;3.85;;
80400;SDS011;69727;53.132;8.230;2024-03-23T03:55:15;19.77;;;4.37;;
80400;SDS011;69727;53.132;8.230;2024-03-23T03:57:41;19.75;;;3.88;;
80400;SDS011;69727;53.132;8.230;2024-03-23T04:00:07;17.27;;;3.40;;
80400;SDS011;69727;53.132;8.230;2024-03-23T04:02:36;19.17;;;3.70;;
80400;SDS011;69727;53.132;8.230;2024-03-23T04:05:02;24.13;;;4.25;;
80400;SDS011;69727;53.132;8.230;2024-03-23T04:07:28;15.35;;;3.35;;
80400;SDS011;69727;53.132;8.230;2024-03-23T04:09:53;25.27;;;4.30;;
80400;SDS011;69727;53.132;8.230;2024-03-23T04:12:20;22.30;;;3.53;;
80400;SDS011;69727;53.132;8.230;2024-03-23T04:14:45;14.40;;;4.57;;
80400;SDS011;69727;53.132;8.230;2024-03-23T04:17:11;19.00;;;3.47;;
80400;SDS011;69727;53.132;8.230;2024-03-23T04:19:36;18.02;;;3.63;;
80400;SDS011;69727;53.132;8.230;2024-03-23T04:22:02;17.15;;;3.97;;
80400;SDS011;69727;53.132;8.230;2024-03-23T04:24:28;19.10;;;3.60;;
80400;SDS011;69727;53.132;8.230;2024-03-23T04:26:54;15.48;;;3.20;;
80400;SDS011;69727;53.132;8.230;2024-03-23T04:29:19;13.07;;;3.13;;
80400;SDS011;69727;53.132;8.230;2024-03-23T04:31:45;19.48;;;3.38;;
80400;SDS011;69727;53.132;8.230;2024-03-23T04:34:10;15.77;;;3.80;;
80400;SDS011;69727;53.132;8.230;2024-03-23T04:36:36;19.88;;;3.30;;
80400;SDS011;69727;53.132;8.230;2024-03-23T04:39:02;13.40;;;3.38;;
80400;SDS011;69727;53.132;8.230;2024-03-23T04:41:27;23.63;;;3.80;;
80400;SDS011;69727;53.132;8.230;2024-03-23T04:43:53;17.35;;;3.05;;
80400;SDS011;69727;53.132;8.230;2024-03-23T04:46:18;17.85;;;3.22;;
80400;SDS011;69727;53.132;8.230;2024-03-23T04:48:45;22.48;;;4.28;;
80400;SDS011;69727;53.132;8.230;2024-03-23T04:51:10;19.70;;;3.30;;
80400;SDS011;69727;53.132;8.230;2024-03-23T04:53:38;17.90;;;3.95;;
80400;SDS011;69727;53.132;8.230;2024-03-23T04:56:04;21.48;;;4.00;;
80400;SDS011;69727;53.132;8.230;2024-03-23T04:58:29;18.17;;;4.00;;
80400;SDS011;69727;53.132;8.230;2024-03-23T05:00:55;21.38;;;3.50;;
80400;SDS011;69727;53.132;8.230;2024-03-23T05:03:21;18.42;;;4.20;;
80400;SDS011;69727;53.132;8.230;2024-03-23T05:05:50;23.48;;;3.88;;
80400;SDS011;69727;53.132;8.230;2024-03-23T05:08:16;13.48;;;3.10;;
80400;SDS011;69727;53.132;8.230;2024-03-23T05:10:44;15.50;;;3.60;;
80400;SDS011;69727;53.132;8.230;2024-03-23T05:13:10;21.92;;;3.70;;
80400;SDS011;69727;53.132;8.230;2024-03-23T05:15:36;19.50;;;3.67;;
80400;SDS011;69727;53.132;8.230;2024-03-23T05:18:02;21.25;;;4.53;;
80400;SDS011;69727;53.132;8.230;2024-03-23T05:20:28;19.13;;;3.85;;
80400;SDS011;69727;53.132;8.230;2024-03-23T05:22:54;22.35;;;3.72;;
80400;SDS011;69727;53.132;8.230;2024-03-23T05:25:20;16.77;;;4.07;;
80400;SDS011;69727;53.132;8.230;2024-03-23T05:27:46;16.85;;;3.40;;
80400;SDS011;69727;53.132;8.230;2024-03-23T05:30:11;18.67;;;3.40;;
80400;SDS011;69727;53.132;8.230;2024-03-23T05:32:36;21.00;;;4.20;;
80400;SDS011;69727;53.132;8.230;2024-03-23T05:35:05;22.10;;;3.75;;
80400;SDS011;69727;53.132;8.230;2024-03-23T05:37:32;14.13;;;3.92;;
80400;SDS011;69727;53.132;8.230;2024-03-23T05:39:59;15.43;;;3.75;;
80400;SDS011;69727;53.132;8.230;2024-03-23T05:42:25;16.73;;;3.42;;
80400;SDS011;69727;53.132;8.230;2024-03-23T05:44:50;18.38;;;4.22;;
80400;SDS011;69727;53.132;8.230;2024-03-23T05:47:16;20.20;;;4.18;;
80400;SDS011;69727;53.132;8.230;2024-03-23T05:49:42;18.40;;;3.80;;
80400;SDS011;69727;53.132;8.230;2024-03-23T05:52:08;12.55;;;3.05;;
80400;SDS011;69727;53.132;8.230;2024-03-23T05:54:34;13.05;;;3.70;;
80400;SDS011;69727;53.132;8.230;2024-03-23T05:57:00;14.10;;;3.72;;
80400;SDS011;69727;53.132;8.230;2024-03-23T05:59:25;12.13;;;3.78;;
80400;SDS011;69727;53.132;8.230;2024-03-23T06:01:52;20.17;;;4.82;;
80400;SDS011;69727;53.132;8.230;2024-03-23T06:04:17;19.42;;;3.70;;
80400;SDS011;69727;53.132;8.230;2024-03-23T06:06:43;20.65;;;3.97;;
80400;SDS011;69727;53.132;8.230;2024-03-23T06:09:08;14.95;;;3.53;;
80400;SDS011;69727;53.132;8.230;2024-03-23T06:11:34;16.47;;;4.20;;
80400;SDS011;69727;53.132;8.230;2024-03-23T06:13:59;22.30;;;3.97;;
80400;SDS011;69727;53.132;8.230;2024-03-23T06:16:24;18.30;;;3.73;;
80400;SDS011;69727;53.132;8.230;2024-03-23T06:18:50;18.83;;;4.23;;
80400;SDS011;69727;53.132;8.230;2024-03-23T06:21:16;19.00;;;3.97;;
80400;SDS011;69727;53.132;8.230;2024-03-23T06:23:41;15.60;;;4.63;;
80400;SDS011;69727;53.132;8.230;2024-03-23T06:26:07;17.40;;;3.65;;
80400;SDS011;69727;53.132;8.230;2024-03-23T06:28:33;24.17;;;4.68;;
80400;SDS011;69727;53.132;8.230;2024-03-23T06:30:59;22.58;;;4.30;;
80400;SDS011;69727;53.132;8.230;2024-03-23T06:33:24;20.70;;;4.78;;
80400;SDS011;69727;53.132;8.230;2024-03-23T06:35:50;15.55;;;3.88;;
80400;SDS011;69727;53.132;8.230;2024-03-23T06:38:17;13.85;;;3.90;;
80400;SDS011;69727;53.132;8.230;2024-03-23T06:40:43;19.05;;;4.10;;
80400;SDS011;69727;53.132;8.230;2024-03-23T06:43:12;20.73;;;3.85;;
80400;SDS011;69727;53.132;8.230;2024-03-23T06:45:38;17.48;;;3.65;;
80400;SDS011;69727;53.132;8.230;2024-03-23T06:48:04;19.17;;;3.65;;
80400;SDS011;69727;53.132;8.230;2024-03-23T06:50:33;19.38;;;3.90;;
80400;SDS011;69727;53.132;8.230;2024-03-23T06:52:58;15.70;;;3.95;;
80400;SDS011;69727;53.132;8.230;2024-03-23T06:55:24;20.60;;;3.90;;
80400;SDS011;69727;53.132;8.230;2024-03-23T06:57:51;18.52;;;4.35;;
80400;SDS011;69727;53.132;8.230;2024-03-23T07:00:17;12.15;;;3.33;;
80400;SDS011;69727;53.132;8.230;2024-03-23T07:02:43;14.57;;;3.55;;
80400;SDS011;69727;53.132;8.230;2024-03-23T07:05:09;17.48;;;3.40;;
80400;SDS011;69727;53.132;8.230;2024-03-23T07:07:35;18.60;;;3.50;;
80400;SDS011;69727;53.132;8.230;2024-03-23T07:10:01;10.07;;;3.25;;
80400;SDS011;69727;53.132;8.230;2024-03-23T07:12:27;12.95;;;3.33;;
80400;SDS011;69727;53.132;8.230;2024-03-23T07:14:53;15.20;;;3.15;;
80400;SDS011;69727;53.132;8.230;2024-03-23T07:17:19;15.40;;;3.30;;
80400;SDS011;69727;53.132;8.230;2024-03-23T07:19:44;9.45;;;2.83;;
80400;SDS011;69727;53.132;8.230;2024-03-23T07:22:09;17.30;;;4.43;;
80400;SDS011;69727;53.132;8.230;2024-03-23T07:24:35;18.35;;;3.22;;
80400;SDS011;69727;53.132;8.230;2024-03-23T07:27:01;14.98;;;3.10;;
80400;SDS011;69727;53.132;8.230;2024-03-23T07:29:28;13.90;;;3.03;;
80400;SDS011;69727;53.132;8.230;2024-03-23T07:31:53;14.23;;;2.83;;
80400;SDS011;69727;53.132;8.230;2024-03-23T07:34:19;13.95;;;2.63;;
80400;SDS011;69727;53.132;8.230;2024-03-23T07:36:45;16.98;;;2.78;;
80400;SDS011;69727;53.132;8.230;2024-03-23T07:39:10;19.88;;;3.47;;
80400;SDS011;69727;53.132;8.230;2024-03-23T07:41:36;9.20;;;2.35;;
80400;SDS011;69727;53.132;8.230;2024-03-23T07:44:02;14.93;;;2.78;;
80400;SDS011;69727;53.132;8.230;2024-03-23T07:46:27;11.70;;;2.80;;
80400;SDS011;69727;53.132;8.230;2024-03-23T07:48:53;11.65;;;2.63;;
80400;SDS011;69727;53.132;8.230;2024-03-23T07:51:21;9.60;;;3.47;;
80400;SDS011;69727;53.132;8.230;2024-03-23T07:53:47;12.43;;;2.20;;
80400;SDS011;69727;53.132;8.230;2024-03-23T07:56:13;11.20;;;2.58;;
80400;SDS011;69727;53.132;8.230;2024-03-23T07:58:44;14.27;;;2.50;;
80400;SDS011;69727;53.132;8.230;2024-03-23T08:01:11;8.82;;;2.08;;
80400;SDS011;69727;53.132;8.230;2024-03-23T08:03:38;11.35;;;1.98;;
80400;SDS011;69727;53.132;8.230;2024-03-23T08:06:18;11.15;;;2.35;;
80400;SDS011;69727;53.132;8.230;2024-03-23T08:08:45;11.20;;;2.28;;
80400;SDS011;69727;53.132;8.230;2024-03-23T08:11:15;12.45;;;2.40;;
80400;SDS011;69727;53.132;8.230;2024-03-23T08:13:46;9.07;;;2.47;;
80400;SDS011;69727;53.132;8.230;2024-03-23T08:16:12;9.60;;;1.93;;
80400;SDS011;69727;53.132;8.230;2024-03-23T08:18:39;12.57;;;2.42;;
80400;SDS011;69727;53.132;8.230;2024-03-23T08:21:05;15.70;;;2.50;;
80400;SDS011;69727;53.132;8.230;2024-03-23T08:23:32;13.98;;;2.08;;
80400;SDS011;69727;53.132;8.230;2024-03-23T08:26:01;7.43;;;1.70;;
80400;SDS011;69727;53.132;8.230;2024-03-23T08:28:34;10.95;;;2.47;;
80400;SDS011;69727;53.132;8.230;2024-03-23T08:31:00;8.75;;;1.77;;
80400;SDS011;69727;53.132;8.230;2024-03-23T08:33:28;10.57;;;2.30;;
80400;SDS011;69727;53.132;8.230;2024-03-23T08:35:57;9.43;;;2.22;;
80400;SDS011;69727;53.132;8.230;2024-03-23T08:40:48;11.43;;;1.92;;
80400;SDS011;69727;53.132;8.230;2024-03-23T08:43:25;10.20;;;2.22;;
80400;SDS011;69727;53.132;8.230;2024-03-23T08:45:50;11.95;;;2.47;;
80400;SDS011;69727;53.132;8.230;2024-03-23T08:48:17;9.48;;;1.70;;
80400;SDS011;69727;53.132;8.230;2024-03-23T08:50:43;12.80;;;2.53;;
80400;SDS011;69727;53.132;8.230;2024-03-23T08:53:08;10.38;;;2.28;;
80400;SDS011;69727;53.132;8.230;2024-03-23T08:55:34;10.60;;;2.00;;
80400;SDS011;69727;53.132;8.230;2024-03-23T08:58:00;8.80;;;2.45;;
80400;SDS011;69727;53.132;8.230;2024-03-23T09:00:26;6.45;;;1.70;;
80400;SDS011;69727;53.132;8.230;2024-03-23T09:02:51;7.28;;;1.98;;
80400;SDS011;69727;53.132;8.230;2024-03-23T09:05:18;5.63;;;1.50;;
80400;SDS011;69727;53.132;8.230;2024-03-23T09:07:43;10.18;;;1.70;;
80400;SDS011;69727;53.132;8.230;2024-03-23T09:10:08;7.23;;;1.80;;
80400;SDS011;69727;53.132;8.230;2024-03-23T09:12:34;10.30;;;2.05;;
80400;SDS011;69727;53.132;8.230;2024-03-23T09:14:59;5.88;;;1.60;;
80400;SDS011;69727;53.132;8.230;2024-03-23T09:17:25;5.57;;;1.50;;
80400;SDS011;69727;53.132;8.230;2024-03-23T09:19:50;5.47;;;1.93;;
80400;SDS011;69727;53.132;8.230;2024-03-23T09:22:15;11.37;;;1.63;;
80400;SDS011;69727;53.132;8.230;2024-03-23T09:24:41;7.77;;;1.60;;
80400;SDS011;69727;53.132;8.230;2024-03-23T09:27:06;7.03;;;2.70;;
80400;SDS011;69727;53.132;8.230;2024-03-23T09:29:31;7.00;;;2.03;;
80400;SDS011;69727;53.132;8.230;2024-03-23T09:31:57;5.35;;;1.65;;
80400;SDS011;69727;53.132;8.230;2024-03-23T09:34:22;7.68;;;1.75;;
80400;SDS011;69727;53.132;8.230;2024-03-23T09:36:51;5.15;;;1.60;;
80400;SDS011;69727;53.132;8.230;2024-03-23T09:39:16;8.65;;;1.90;;
80400;SDS011;69727;53.132;8.230;2024-03-23T09:41:42;11.45;;;2.33;;
80400;SDS011;69727;53.132;8.230;2024-03-23T09:44:08;5.38;;;1.58;;
80400;SDS011;69727;53.132;8.230;2024-03-23T09:46:34;5.65;;;1.90;;
80400;SDS011;69727;53.132;8.230;2024-03-23T09:49:01;6.68;;;1.98;;
80400;SDS011;69727;53.132;8.230;2024-03-23T09:51:31;5.85;;;1.77;;
80400;SDS011;69727;53.132;8.230;2024-03-23T09:53:57;5.18;;;1.55;;
80400;SDS011;69727;53.132;8.230;2024-03-23T09:56:22;5.38;;;1.90;;
80400;SDS011;69727;53.132;8.230;2024-03-23T09:58:48;6.50;;;1.50;;
80400;SDS011;69727;53.132;8.230;2024-03-23T10:01:14;8.00;;;1.60;;
80400;SDS011;69727;53.132;8.230;2024-03-23T10:03:46;5.72;;;1.67;;
80400;SDS011;69727;53.132;8.230;2024-03-23T10:06:11;6.25;;;1.98;;
80400;SDS011;69727;53.132;8.230;2024-03-23T10:08:37;10.48;;;2.13;;
80400;SDS011;69727;53.132;8.230;2024-03-23T10:11:15;6.32;;;1.60;;
80400;SDS011;69727;53.132;8.230;2024-03-23T10:13:42;7.95;;;1.60;;
80400;SDS011;69727;53.132;8.230;2024-03-23T10:16:09;10.40;;;2.97;;
80400;SDS011;69727;53.132;8.230;2024-03-23T10:18:38;7.35;;;1.65;;
80400;SDS011;69727;53.132;8.230;2024-03-23T10:21:10;3.25;;;1.48;;
80400;SDS011;69727;53.132;8.230;2024-03-23T10:23:40;3.83;;;1.50;;
80400;SDS011;69727;53.132;8.230;2024-03-23T10:28:50;8.27;;;2.33;;
80400;SDS011;69727;53.132;8.230;2024-03-23T10:31:32;5.40;;;1.52;;
80400;SDS011;69727;53.132;8.230;2024-03-23T10:33:57;6.72;;;1.70;;
80400;SDS011;69727;53.132;8.230;2024-03-23T10:36:23;6.65;;;1.75;;
80400;SDS011;69727;53.132;8.230;2024-03-23T10:38:51;6.13;;;1.70;;
80400;SDS011;69727;53.132;8.230;2024-03-23T10:41:17;4.18;;;1.63;;
80400;SDS011;69727;53.132;8.230;2024-03-23T10:43:44;6.20;;;1.40;;
80400;SDS011;69727;53.132;8.230;2024-03-23T10:46:11;4.65;;;1.33;;
80400;SDS011;69727;53.132;8.230;2024-03-23T10:48:37;6.40;;;1.40;;
80400;SDS011;69727;53.132;8.230;2024-03-23T10:51:03;5.13;;;1.42;;
80400;SDS011;69727;53.132;8.230;2024-03-23T10:53:30;5.32;;;1.55;;
80400;SDS011;69727;53.132;8.230;2024-03-23T10:55:58;5.18;;;1.55;;
80400;SDS011;69727;53.132;8.230;2024-03-23T10:58:29;5.28;;;1.10;;
80400;SDS011;69727;53.132;8.230;2024-03-23T11:01:17;5.25;;;1.50;;
80400;SDS011;69727;53.132;8.230;2024-03-23T11:03:46;10.43;;;1.63;;
80400;SDS011;69727;53.132;8.230;2024-03-23T11:06:33;7.07;;;1.80;;
80400;SDS011;69727;53.132;8.230;2024-03-23T11:09:50;5.68;;;1.75;;
80400;SDS011;69727;53.132;8.230;2024-03-23T11:12:05;5.28;;;1.85;;
80400;SDS011;69727;53.132;8.230;2024-03-23T11:17:30;5.05;;;1.65;;
80400;SDS011;69727;53.132;8.230;2024-03-23T11:19:59;7.55;;;2.03;;
80400;SDS011;69727;53.132;8.230;2024-03-23T11:25:18;9.20;;;1.92;;
80400;SDS011;69727;53.132;8.230;2024-03-23T11:27:46;7.13;;;1.15;;
80400;SDS011;69727;53.132;8.230;2024-03-23T11:30:19;7.05;;;1.80;;
80400;SDS011;69727;53.132;8.230;2024-03-23T11:32:53;3.97;;;1.30;;
80400;SDS011;69727;53.132;8.230;2024-03-23T11:35:29;6.18;;;1.30;;
80400;SDS011;69727;53.132;8.230;2024-03-23T11:38:08;3.45;;;1.33;;
80400;SDS011;69727;53.132;8.230;2024-03-23T11:43:16;5.50;;;1.08;;
80400;SDS011;69727;53.132;8.230;2024-03-23T11:45:43;4.30;;;1.27;;
80400;SDS011;69727;53.132;8.230;2024-03-23T11:48:13;2.95;;;1.00;;
80400;SDS011;69727;53.132;8.230;2024-03-23T11:50:41;5.93;;;1.65;;
80400;SDS011;69727;53.132;8.230;2024-03-23T11:55:44;3.92;;;0.60;;
80400;SDS011;69727;53.132;8.230;2024-03-23T11:58:13;1.80;;;0.55;;
80400;SDS011;69727;53.132;8.230;2024-03-23T12:00:40;2.45;;;0.80;;
80400;SDS011;69727;53.132;8.230;2024-03-23T12:03:06;4.10;;;0.90;;
80400;SDS011;69727;53.132;8.230;2024-03-23T12:05:32;0.70;;;0.40;;
80400;SDS011;69727;53.132;8.230;2024-03-23T12:08:17;6.45;;;1.20;;
80400;SDS011;69727;53.132;8.230;2024-03-23T12:10:47;4.00;;;0.60;;
80400;SDS011;69727;53.132;8.230;2024-03-23T12:13:15;4.55;;;0.88;;
80400;SDS011;69727;53.132;8.230;2024-03-23T12:15:42;4.97;;;0.90;;
80400;SDS011;69727;53.132;8.230;2024-03-23T12:18:08;3.38;;;0.90;;
80400;SDS011;69727;53.132;8.230;2024-03-23T12:20:35;2.60;;;0.80;;
80400;SDS011;69727;53.132;8.230;2024-03-23T12:23:07;3.65;;;1.02;;
80400;SDS011;69727;53.132;8.230;2024-03-23T12:25:35;4.40;;;1.45;;
80400;SDS011;69727;53.132;8.230;2024-03-23T12:28:01;3.83;;;0.98;;
80400;SDS011;69727;53.132;8.230;2024-03-23T12:30:27;4.65;;;1.27;;
80400;SDS011;69727;53.132;8.230;2024-03-23T12:32:52;4.10;;;1.25;;
80400;SDS011;69727;53.132;8.230;2024-03-23T12:35:18;2.72;;;1.05;;
80400;SDS011;69727;53.132;8.230;2024-03-23T12:37:43;7.40;;;1.60;;
80400;SDS011;69727;53.132;8.230;2024-03-23T12:40:09;4.75;;;1.38;;
80400;SDS011;69727;53.132;8.230;2024-03-23T12:42:35;8.85;;;1.27;;
80400;SDS011;69727;53.132;8.230;2024-03-23T12:45:00;5.73;;;1.00;;
80400;SDS011;69727;53.132;8.230;2024-03-23T12:47:26;6.18;;;1.38;;
80400;SDS011;69727;53.132;8.230;2024-03-23T12:49:52;4.87;;;1.50;;
80400;SDS011;69727;53.132;8.230;2024-03-23T12:52:17;4.43;;;1.30;;
80400;SDS011;69727;53.132;8.230;2024-03-23T12:54:45;6.28;;;1.48;;
80400;SDS011;69727;53.132;8.230;2024-03-23T12:57:10;6.70;;;1.40;;
80400;SDS011;69727;53.132;8.230;2024-03-23T12:59:35;5.53;;;1.40;;
80400;SDS011;69727;53.132;8.230;2024-03-23T13:02:01;6.10;;;1.30;;
80400;SDS011;69727;53.132;8.230;2024-03-23T13:04:26;3.15;;;0.90;;
80400;SDS011;69727;53.132;8.230;2024-03-23T13:06:51;2.97;;;0.80;;
80400;SDS011;69727;53.132;8.230;2024-03-23T13:09:17;2.50;;;0.93;;
80400;SDS011;69727;53.132;8.230;2024-03-23T13:11:43;3.13;;;0.90;;
80400;SDS011;69727;53.132;8.230;2024-03-23T13:14:09;3.25;;;0.80;;
80400;SDS011;69727;53.132;8.230;2024-03-23T13:16:34;1.15;;;0.38;;
80400;SDS011;69727;53.132;8.230;2024-03-23T13:18:59;1.90;;;0.60;;
80400;SDS011;69727;53.132;8.230;2024-03-23T13:21:26;5.18;;;0.77;;
80400;SDS011;69727;53.132;8.230;2024-03-23T13:23:51;2.15;;;0.40;;
80400;SDS011;69727;53.132;8.230;2024-03-23T13:26:17;3.83;;;0.95;;
80400;SDS011;69727;53.132;8.230;2024-03-23T13:28:42;5.20;;;0.70;;
80400;SDS011;69727;53.132;8.230;2024-03-23T13:31:08;2.90;;;0.63;;
80400;SDS011;69727;53.132;8.230;2024-03-23T13:33:33;3.92;;;0.82;;
80400;SDS011;69727;53.132;8.230;2024-03-23T13:35:59;6.47;;;0.82;;
80400;SDS011;69727;53.132;8.230;2024-03-23T13:38:25;2.85;;;0.63;;
80400;SDS011;69727;53.132;8.230;2024-03-23T13:43:17;3.13;;;0.80;;
80400;SDS011;69727;53.132;8.230;2024-03-23T13:45:43;7.32;;;1.00;;
80400;SDS011;69727;53.132;8.230;2024-03-23T13:48:09;7.85;;;1.27;;
80400;SDS011;69727;53.132;8.230;2024-03-23T13:50:34;5.00;;;0.98;;
80400;SDS011;69727;53.132;8.230;2024-03-23T13:53:00;3.60;;;0.88;;
80400;SDS011;69727;53.132;8.230;2024-03-23T13:55:26;6.07;;;0.93;;
80400;SDS011;69727;53.132;8.230;2024-03-23T13:57:51;3.75;;;0.70;;
80400;SDS011;69727;53.132;8.230;2024-03-23T14:00:16;3.90;;;0.75;;
80400;SDS011;69727;53.132;8.230;2024-03-23T14:02:43;3.75;;;0.80;;
80400;SDS011;69727;53.132;8.230;2024-03-23T14:05:09;5.28;;;1.00;;
80400;SDS011;69727;53.132;8.230;2024-03-23T14:07:36;4.55;;;0.88;;
80400;SDS011;69727;53.132;8.230;2024-03-23T14:10:04;2.33;;;0.60;;
80400;SDS011;69727;53.132;8.230;2024-03-23T14:12:35;4.72;;;0.95;;
80400;SDS011;69727;53.132;8.230;2024-03-23T14:15:03;3.65;;;1.00;;
80400;SDS011;69727;53.132;8.230;2024-03-23T14:17:30;4.90;;;1.10;;
80400;SDS011;69727;53.132;8.230;2024-03-23T14:19:56;1.98;;;0.77;;
80400;SDS011;69727;53.132;8.230;2024-03-23T14:22:26;4.47;;;1.02;;
80400;SDS011;69727;53.132;8.230;2024-03-23T14:24:54;5.25;;;1.08;;
80400;SDS011;69727;53.132;8.230;2024-03-23T14:27:19;4.53;;;0.85;;
80400;SDS011;69727;53.132;8.230;2024-03-23T14:29:46;4.32;;;1.00;;
80400;SDS011;69727;53.132;8.230;2024-03-23T14:32:12;4.85;;;0.88;;
80400;SDS011;69727;53.132;8.230;2024-03-23T14:34:37;3.83;;;0.80;;
80400;SDS011;69727;53.132;8.230;2024-03-23T14:37:03;5.90;;;1.02;;
80400;SDS011;69727;53.132;8.230;2024-03-23T14:39:30;5.38;;;1.13;;
80400;SDS011;69727;53.132;8.230;2024-03-23T14:41:56;4.18;;;0.80;;
80400;SDS011;69727;53.132;8.230;2024-03-23T14:44:21;3.90;;;1.27;;
80400;SDS011;69727;53.132;8.230;2024-03-23T14:46:47;6.40;;;0.90;;
80400;SDS011;69727;53.132;8.230;2024-03-23T14:49:16;5.03;;;1.17;;
80400;SDS011;69727;53.132;8.230;2024-03-23T14:51:41;6.35;;;1.40;;
80400;SDS011;69727;53.132;8.230;2024-03-23T14:54:07;5.65;;;0.90;;
80400;SDS011;69727;53.132;8.230;2024-03-23T14:56:33;3.67;;;0.90;;
80400;SDS011;69727;53.132;8.230;2024-03-23T14:58:59;5.93;;;0.93;;
80400;SDS011;69727;53.132;8.230;2024-03-23T15:01:26;6.32;;;1.52;;
80400;SDS011;69727;53.132;8.230;2024-03-23T15:03:52;6.65;;;1.10;;
80400;SDS011;69727;53.132;8.230;2024-03-23T15:06:18;3.22;;;0.90;;
80400;SDS011;69727;53.132;8.230;2024-03-23T15:08:44;6.05;;;1.30;;
80400;SDS011;69727;53.132;8.230;2024-03-23T15:11:09;5.35;;;1.20;;
80400;SDS011;69727;53.132;8.230;2024-03-23T15:13:35;6.38;;;1.35;;
80400;SDS011;69727;53.132;8.230;2024-03-23T15:16:02;4.82;;;1.00;;
80400;SDS011;69727;53.132;8.230;2024-03-23T15:18:29;7.20;;;0.90;;
80400;SDS011;69727;53.132;8.230;2024-03-23T15:20:59;4.95;;;1.13;;
80400;SDS011;69727;53.132;8.230;2024-03-23T15:23:30;3.65;;;1.10;;
80400;SDS011;69727;53.132;8.230;2024-03-23T15:25:56;6.18;;;1.20;;
80400;SDS011;69727;53.132;8.230;2024-03-23T15:28:25;3.90;;;1.00;;
80400;SDS011;69727;53.132;8.230;2024-03-23T15:31:06;6.50;;;1.45;;
80400;SDS011;69727;53.132;8.230;2024-03-23T15:33:34;3.53;;;1.00;;
80400;SDS011;69727;53.132;8.230;2024-03-23T15:36:00;4.95;;;1.05;;
80400;SDS011;69727;53.132;8.230;2024-03-23T15:38:25;5.75;;;1.42;;
80400;SDS011;69727;53.132;8.230;2024-03-23T15:40:51;6.03;;;1.15;;
80400;SDS011;69727;53.132;8.230;2024-03-23T15:43:17;5.43;;;1.17;;
80400;SDS011;69727;53.132;8.230;2024-03-23T15:45:43;6.78;;;1.20;;
80400;SDS011;69727;53.132;8.230;2024-03-23T15:48:08;9.43;;;1.20;;